createdAt,value
2022-11-02T00:04:45.199Z,100.00
2022-11-02T00:09:46.664Z,100.00
2022-11-02T00:14:48.156Z,100.00
2022-11-02T00:19:49.662Z,100.00
2022-11-02T00:24:51.499Z,100.00
2022-11-02T00:29:53.944Z,100.00
2022-11-02T00:34:55.407Z,100.00
2022-11-02T00:39:56.942Z,100.00
2022-11-02T00:44:58.478Z,100.00
2022-11-02T00:50:00.003Z,100.00
2022-11-02T00:55:01.482Z,100.00
2022-11-02T01:00:04.005Z,100.00
2022-11-02T01:05:08.162Z,100.00
2022-11-02T01:10:10.989Z,100.00
2022-11-02T01:15:12.473Z,100.00
2022-11-02T01:20:14.392Z,100.00
2022-11-02T01:25:16.420Z,100.00
2022-11-02T01:30:17.972Z,100.00
2022-11-02T01:35:19.452Z,100.00
2022-11-02T01:40:20.948Z,100.00
2022-11-02T01:45:22.611Z,100.00
2022-11-02T01:50:27.425Z,100.00
2022-11-02T01:55:32.917Z,100.00
2022-11-02T02:00:34.404Z,100.00
2022-11-02T02:05:40.815Z,100.00
2022-11-02T02:10:42.269Z,100.00
2022-11-02T02:16:00.684Z,100.00
2022-11-02T02:21:14.530Z,100.00
2022-11-02T02:26:55.326Z,100.00
2022-11-02T02:32:10.003Z,100.00
2022-11-02T02:37:19.444Z,100.00
2022-11-02T02:42:31.316Z,100.00
2022-11-02T02:47:35.516Z,100.00
2022-11-02T02:52:37.826Z,100.00
2022-11-02T02:57:39.791Z,100.00
2022-11-02T03:02:43.929Z,100.00
2022-11-02T03:07:45.482Z,100.00
2022-11-02T03:13:23.512Z,100.00
2022-11-02T03:18:43.679Z,100.00
2022-11-02T03:23:58.397Z,100.00
2022-11-02T03:28:59.825Z,100.00
2022-11-02T03:34:09.399Z,100.00
2022-11-02T03:39:13.672Z,100.00
2022-11-02T03:44:20.261Z,100.00
2022-11-02T03:49:23.804Z,100.00
2022-11-02T03:54:51.713Z,100.00
2022-11-02T03:59:53.207Z,100.00
2022-11-02T04:04:54.744Z,100.00
2022-11-02T04:09:56.185Z,100.00
2022-11-02T04:14:57.642Z,100.00
2022-11-02T04:19:59.152Z,100.00
2022-11-02T04:25:15.751Z,100.00
2022-11-02T04:30:22.324Z,100.00
2022-11-02T04:35:23.773Z,100.00
2022-11-02T04:40:25.444Z,100.00
2022-11-02T04:45:26.918Z,100.00
2022-11-02T04:50:28.890Z,100.00
2022-11-02T04:55:31.195Z,100.00
2022-11-02T05:00:32.674Z,100.00
2022-11-02T05:05:34.148Z,100.00
2022-11-02T05:10:35.777Z,100.00
2022-11-02T05:15:39.767Z,100.00
2022-11-02T05:20:41.374Z,100.00
2022-11-02T05:25:42.813Z,100.00
2022-11-02T05:30:44.323Z,100.00
2022-11-02T05:35:46.446Z,100.00
2022-11-02T05:40:55.762Z,100.00
2022-11-02T05:46:02.161Z,100.00
2022-11-02T05:51:04.349Z,100.00
2022-11-02T05:56:07.696Z,100.00
2022-11-02T06:01:10.784Z,100.00
2022-11-02T06:06:12.461Z,100.00
2022-11-02T06:11:14.358Z,100.00
2022-11-02T06:16:22.397Z,100.00
2022-11-02T06:21:24.670Z,100.00
2022-11-02T06:26:26.153Z,100.00
2022-11-02T06:31:27.618Z,100.00
2022-11-02T06:36:29.080Z,100.00
2022-11-02T06:41:30.544Z,100.00
2022-11-02T06:46:32.278Z,100.00
2022-11-02T06:51:33.725Z,100.00
2022-11-02T06:56:35.180Z,100.00
2022-11-02T07:01:36.822Z,100.00
2022-11-02T07:06:38.355Z,100.00
2022-11-02T07:11:39.825Z,100.00
2022-11-02T07:16:41.293Z,100.00
2022-11-02T07:21:45.107Z,100.00
2022-11-02T07:26:50.222Z,100.00
2022-11-02T07:31:51.751Z,100.00
2022-11-02T07:36:55.044Z,100.00
2022-11-02T07:41:56.566Z,100.00
2022-11-02T07:46:58.088Z,100.00
2022-11-02T07:51:59.585Z,100.00
2022-11-02T07:57:01.125Z,100.00
2022-11-02T08:02:03.133Z,100.00
2022-11-02T08:07:05.122Z,100.00
2022-11-02T08:12:06.642Z,100.00
2022-11-02T08:17:08.418Z,100.00
2022-11-02T08:22:10.781Z,100.00
2022-11-02T08:27:12.260Z,100.00
2022-11-02T08:32:13.731Z,100.00
2022-11-02T08:37:15.198Z,100.00
2022-11-02T08:42:17.379Z,100.00
2022-11-02T08:47:18.903Z,100.00
2022-11-02T08:52:20.376Z,100.00
2022-11-02T08:57:21.825Z,100.00
2022-11-02T09:02:23.423Z,100.00
2022-11-02T09:07:24.882Z,100.00
2022-11-02T09:12:26.347Z,100.00
2022-11-02T09:17:29.235Z,100.00
2022-11-02T09:22:30.742Z,100.00
2022-11-02T09:27:32.220Z,100.00
2022-11-02T09:32:34.413Z,99.53
2022-11-02T09:37:36.531Z,98.24
2022-11-02T09:42:46.578Z,96.46
2022-11-02T09:48:17.995Z,95.27
2022-11-02T09:53:31.671Z,94.16
2022-11-02T09:58:40.897Z,93.07
2022-11-02T10:04:33.270Z,92.00
2022-11-02T10:09:49.960Z,90.54
2022-11-02T10:15:22.917Z,89.42
2022-11-02T10:20:39.325Z,89.16
2022-11-02T10:25:41.953Z,87.90
2022-11-02T10:30:44.500Z,86.46
2022-11-02T10:36:30.591Z,84.85
2022-11-02T10:41:37.859Z,84.29
2022-11-02T10:46:57.918Z,84.79
2022-11-02T10:51:59.703Z,84.01
2022-11-02T10:57:11.222Z,83.60
2022-11-02T11:02:15.171Z,82.95
2022-11-02T11:07:22.221Z,83.10
2022-11-02T11:12:30.549Z,81.41
2022-11-02T11:23:25.374Z,79.91
2022-11-02T11:28:37.916Z,79.85
2022-11-02T11:33:49.105Z,79.32
2022-11-02T11:38:52.532Z,79.85
2022-11-02T11:43:54.543Z,79.49
2022-11-02T11:48:59.653Z,79.81
2022-11-02T11:54:14.947Z,79.78
2022-11-02T11:59:22.307Z,79.22
2022-11-02T12:04:37.471Z,78.46
2022-11-02T12:10:09.713Z,77.79
2022-11-02T12:15:38.596Z,78.73
2022-11-02T12:21:15.734Z,80.15
2022-11-02T12:26:42.062Z,80.84
2022-11-02T12:31:54.485Z,81.81
2022-11-02T12:37:40.047Z,82.75
2022-11-02T12:43:21.661Z,81.93
2022-11-02T12:48:49.561Z,81.05
2022-11-02T12:54:13.941Z,80.73
2022-11-02T12:59:26.956Z,80.29
2022-11-02T13:04:39.640Z,80.97
2022-11-02T13:09:51.944Z,82.26
2022-11-02T13:14:56.739Z,83.14
2022-11-02T13:20:01.875Z,83.46
2022-11-02T13:25:15.637Z,82.57
2022-11-02T13:30:19.023Z,81.83
2022-11-02T13:35:27.793Z,81.63
2022-11-02T13:40:47.481Z,81.79
2022-11-02T13:45:57.324Z,81.18
2022-11-02T13:51:06.212Z,81.38
2022-11-02T13:56:21.290Z,81.72
2022-11-02T14:01:23.521Z,84.27
2022-11-02T14:06:25.941Z,85.81
2022-11-02T14:11:42.512Z,87.03
2022-11-02T14:16:58.641Z,88.29
2022-11-02T14:22:00.355Z,87.84
2022-11-02T14:27:13.646Z,88.40
2022-11-02T14:32:21.010Z,90.26
2022-11-02T14:37:41.112Z,92.51
2022-11-02T14:42:52.650Z,94.02
2022-11-02T14:48:04.248Z,94.97
2022-11-02T14:53:16.714Z,95.38
2022-11-02T14:58:20.371Z,95.33
2022-11-02T15:03:24.660Z,95.51
2022-11-02T15:08:31.421Z,94.46
2022-11-02T15:13:36.095Z,97.31
2022-11-02T15:18:38.908Z,98.97
2022-11-02T15:24:12.343Z,100.00
2022-11-02T15:29:26.935Z,100.00
2022-11-02T15:34:43.525Z,100.00
2022-11-02T15:39:52.847Z,100.00
2022-11-02T15:45:48.794Z,100.00
2022-11-02T15:50:53.198Z,100.00
2022-11-02T15:56:28.512Z,100.00
2022-11-02T16:01:30.143Z,100.00
2022-11-02T16:06:41.590Z,100.00
2022-11-02T16:11:43.050Z,100.00
2022-11-02T16:16:49.656Z,100.00
2022-11-02T16:21:51.169Z,100.00
2022-11-02T16:26:52.804Z,100.00
2022-11-02T16:31:54.315Z,100.00
2022-11-02T16:36:56.828Z,100.00
2022-11-02T16:42:00.486Z,100.00
2022-11-02T16:47:08.137Z,100.00
2022-11-02T16:52:20.469Z,100.00
2022-11-02T16:57:25.201Z,100.00
2022-11-02T17:02:39.610Z,100.00
2022-11-02T17:07:46.795Z,100.00
2022-11-02T17:12:49.237Z,100.00
2022-11-02T17:17:50.998Z,100.00
2022-11-02T17:22:58.717Z,100.00
2022-11-02T17:28:03.223Z,100.00
2022-11-02T17:33:29.578Z,100.00
2022-11-02T17:43:57.825Z,100.00
2022-11-02T17:48:59.316Z,100.00
2022-11-02T17:54:00.791Z,100.00
2022-11-02T17:59:02.282Z,100.00
2022-11-02T18:04:03.808Z,100.00
2022-11-02T18:09:11.216Z,100.00
2022-11-02T18:14:16.773Z,100.00
2022-11-02T18:19:19.310Z,100.00
2022-11-02T18:24:20.803Z,100.00
2022-11-02T18:29:22.305Z,100.00
2022-11-02T18:34:25.894Z,100.00
2022-11-02T18:39:28.953Z,100.00
2022-11-02T18:44:30.420Z,100.00
2022-11-02T18:49:31.907Z,100.00
2022-11-02T18:54:33.504Z,100.00
2022-11-02T18:59:36.084Z,100.00
2022-11-02T19:04:37.777Z,100.00
2022-11-02T19:09:39.300Z,100.00
2022-11-02T19:14:44.505Z,100.00
2022-11-02T19:19:46.700Z,100.00
2022-11-02T19:24:51.423Z,100.00
2022-11-02T19:29:53.026Z,100.00
2022-11-02T19:34:54.499Z,100.00
2022-11-02T19:39:56.001Z,100.00
2022-11-02T19:44:57.483Z,100.00
2022-11-02T19:49:58.947Z,100.00
2022-11-02T19:55:00.470Z,100.00
2022-11-02T20:00:01.965Z,100.00
2022-11-02T20:05:03.545Z,100.00
2022-11-02T20:10:05.244Z,100.00
2022-11-02T20:15:07.932Z,100.00
2022-11-02T20:20:09.618Z,100.00
2022-11-02T20:25:11.093Z,100.00
2022-11-02T20:30:12.638Z,100.00
2022-11-02T20:35:14.181Z,99.62
2022-11-02T20:40:15.972Z,99.51
2022-11-02T20:45:17.919Z,99.47
2022-11-02T20:50:24.739Z,99.69
2022-11-02T20:55:27.488Z,99.53
2022-11-02T21:00:28.985Z,99.47
2022-11-02T21:05:30.786Z,99.44
2022-11-02T21:10:32.251Z,99.70
2022-11-02T21:15:38.513Z,99.77
2022-11-02T21:20:42.635Z,99.65
2022-11-02T21:25:46.366Z,99.83
2022-11-02T21:30:49.653Z,99.57
2022-11-02T21:35:53.783Z,99.77
2022-11-02T21:41:01.311Z,99.42
2022-11-02T21:46:05.628Z,99.27
2022-11-02T21:51:15.904Z,99.20
2022-11-02T21:56:26.864Z,99.74
2022-11-02T22:01:49.389Z,99.85
2022-11-02T22:06:52.337Z,99.68
2022-11-02T22:12:12.893Z,100.00
2022-11-02T22:17:43.229Z,100.00
2022-11-02T22:22:35.842Z,100.00
2022-11-02T22:27:37.301Z,100.00
2022-11-02T22:32:38.748Z,100.00
2022-11-02T22:37:58.765Z,100.00
2022-11-02T22:43:00.255Z,100.00
2022-11-02T22:48:01.900Z,100.00
2022-11-02T22:53:09.272Z,100.00
2022-11-02T22:58:12.780Z,100.00
2022-11-02T23:03:19.109Z,100.00
2022-11-02T23:08:20.893Z,100.00
2022-11-02T23:13:22.748Z,100.00
2022-11-02T23:18:44.179Z,100.00
2022-11-02T23:24:04.291Z,100.00
2022-11-02T23:29:24.300Z,100.00
2022-11-02T23:34:25.761Z,100.00
2022-11-02T23:39:45.771Z,100.00
2022-11-02T23:44:47.245Z,100.00
2022-11-02T23:49:48.711Z,100.00
2022-11-02T23:55:08.492Z,100.00
